sensor_id;sensor_type;location;lat;lon;timestamp;P1;durP1;ratioP1;P2;durP2;ratioP2
41309;SDS011;27057;51.438;-0.010;2023-02-28T00:01:30;13.83;;;4.13;;
41309;SDS011;27057;51.438;-0.010;2023-02-28T00:03:59;10.88;;;4.75;;
41309;SDS011;27057;51.438;-0.010;2023-02-28T00:06:26;6.88;;;3.17;;
41309;SDS011;27057;51.438;-0.010;2023-02-28T00:08:54;12.40;;;3.55;;
41309;SDS011;27057;51.438;-0.010;2023-02-28T00:11:21;12.02;;;3.63;;
41309;SDS011;27057;51.438;-0.010;2023-02-28T00:13:49;12.00;;;3.03;;
41309;SDS011;27057;51.438;-0.010;2023-02-28T00:16:21;12.23;;;2.70;;
41309;SDS011;27057;51.438;-0.010;2023-02-28T00:18:49;9.02;;;3.00;;
41309;SDS011;27057;51.438;-0.010;2023-02-28T00:21:17;9.75;;;2.78;;
41309;SDS011;27057;51.438;-0.010;2023-02-28T00:23:45;11.73;;;3.72;;
41309;SDS011;27057;51.438;-0.010;2023-02-28T00:26:13;7.40;;;3.15;;
41309;SDS011;27057;51.438;-0.010;2023-02-28T00:28:44;14.80;;;3.20;;
41309;SDS011;27057;51.438;-0.010;2023-02-28T00:31:11;14.57;;;3.08;;
41309;SDS011;27057;51.438;-0.010;2023-02-28T00:33:39;11.35;;;2.58;;
41309;SDS011;27057;51.438;-0.010;2023-02-28T00:36:08;15.57;;;3.40;;
41309;SDS011;27057;51.438;-0.010;2023-02-28T00:38:37;13.57;;;2.53;;
41309;SDS011;27057;51.438;-0.010;2023-02-28T00:41:06;29.02;;;3.78;;
41309;SDS011;27057;51.438;-0.010;2023-02-28T00:43:34;14.07;;;2.60;;
41309;SDS011;27057;51.438;-0.010;2023-02-28T00:46:03;8.98;;;3.25;;
41309;SDS011;27057;51.438;-0.010;2023-02-28T00:48:31;16.90;;;3.13;;
41309;SDS011;27057;51.438;-0.010;2023-02-28T00:50:59;8.40;;;3.00;;
41309;SDS011;27057;51.438;-0.010;2023-02-28T00:53:27;15.98;;;3.53;;
41309;SDS011;27057;51.438;-0.010;2023-02-28T00:55:56;15.90;;;3.20;;
41309;SDS011;27057;51.438;-0.010;2023-02-28T00:58:25;14.88;;;3.55;;
41309;SDS011;27057;51.438;-0.010;2023-02-28T01:00:53;11.85;;;2.95;;
41309;SDS011;27057;51.438;-0.010;2023-02-28T01:03:21;14.70;;;3.20;;
41309;SDS011;27057;51.438;-0.010;2023-02-28T01:05:49;23.02;;;3.47;;
41309;SDS011;27057;51.438;-0.010;2023-02-28T01:08:17;12.13;;;3.25;;
41309;SDS011;27057;51.438;-0.010;2023-02-28T01:10:44;8.00;;;2.67;;
41309;SDS011;27057;51.438;-0.010;2023-02-28T01:13:12;16.67;;;3.17;;
41309;SDS011;27057;51.438;-0.010;2023-02-28T01:15:40;13.98;;;3.72;;
41309;SDS011;27057;51.438;-0.010;2023-02-28T01:18:12;10.70;;;3.47;;
41309;SDS011;27057;51.438;-0.010;2023-02-28T01:20:39;9.43;;;3.33;;
41309;SDS011;27057;51.438;-0.010;2023-02-28T01:23:09;12.85;;;3.15;;
41309;SDS011;27057;51.438;-0.010;2023-02-28T01:25:36;23.10;;;4.22;;
41309;SDS011;27057;51.438;-0.010;2023-02-28T01:28:04;14.50;;;3.67;;
41309;SDS011;27057;51.438;-0.010;2023-02-28T01:30:33;21.77;;;4.32;;
41309;SDS011;27057;51.438;-0.010;2023-02-28T01:33:01;13.35;;;3.22;;
41309;SDS011;27057;51.438;-0.010;2023-02-28T01:35:28;18.00;;;3.30;;
41309;SDS011;27057;51.438;-0.010;2023-02-28T01:37:56;22.02;;;4.75;;
41309;SDS011;27057;51.438;-0.010;2023-02-28T01:40:35;17.05;;;3.55;;
41309;SDS011;27057;51.438;-0.010;2023-02-28T01:43:04;6.78;;;3.30;;
41309;SDS011;27057;51.438;-0.010;2023-02-28T01:45:43;29.88;;;3.95;;
41309;SDS011;27057;51.438;-0.010;2023-02-28T01:48:11;14.88;;;4.32;;
41309;SDS011;27057;51.438;-0.010;2023-02-28T01:50:39;21.00;;;3.70;;
41309;SDS011;27057;51.438;-0.010;2023-02-28T01:53:10;29.83;;;3.88;;
41309;SDS011;27057;51.438;-0.010;2023-02-28T01:55:45;16.10;;;3.55;;
41309;SDS011;27057;51.438;-0.010;2023-02-28T01:58:15;16.17;;;3.13;;
41309;SDS011;27057;51.438;-0.010;2023-02-28T02:00:42;18.02;;;4.45;;
41309;SDS011;27057;51.438;-0.010;2023-02-28T02:03:11;12.95;;;4.05;;
41309;SDS011;27057;51.438;-0.010;2023-02-28T02:05:43;15.38;;;4.05;;
41309;SDS011;27057;51.438;-0.010;2023-02-28T02:08:16;16.98;;;4.10;;
41309;SDS011;27057;51.438;-0.010;2023-02-28T02:10:51;27.60;;;4.43;;
41309;SDS011;27057;51.438;-0.010;2023-02-28T02:13:37;22.58;;;4.40;;
41309;SDS011;27057;51.438;-0.010;2023-02-28T02:19:00;13.15;;;3.60;;
41309;SDS011;27057;51.438;-0.010;2023-02-28T02:24:38;22.08;;;4.20;;
41309;SDS011;27057;51.438;-0.010;2023-02-28T02:36:13;14.02;;;3.70;;
41309;SDS011;27057;51.438;-0.010;2023-02-28T02:39:18;11.70;;;3.75;;
41309;SDS011;27057;51.438;-0.010;2023-02-28T02:41:52;28.92;;;3.60;;
41309;SDS011;27057;51.438;-0.010;2023-02-28T02:44:21;26.33;;;4.35;;
41309;SDS011;27057;51.438;-0.010;2023-02-28T02:47:00;30.15;;;4.65;;
41309;SDS011;27057;51.438;-0.010;2023-02-28T02:49:41;18.33;;;4.30;;
41309;SDS011;27057;51.438;-0.010;2023-02-28T02:52:14;22.23;;;4.93;;
41309;SDS011;27057;51.438;-0.010;2023-02-28T02:54:46;23.40;;;5.20;;
41309;SDS011;27057;51.438;-0.010;2023-02-28T02:57:18;15.80;;;4.40;;
41309;SDS011;27057;51.438;-0.010;2023-02-28T02:59:50;12.02;;;4.15;;
41309;SDS011;27057;51.438;-0.010;2023-02-28T03:02:19;25.70;;;4.55;;
41309;SDS011;27057;51.438;-0.010;2023-02-28T03:04:50;18.27;;;4.13;;
41309;SDS011;27057;51.438;-0.010;2023-02-28T03:07:21;13.10;;;4.05;;
41309;SDS011;27057;51.438;-0.010;2023-02-28T03:09:52;21.33;;;5.05;;
41309;SDS011;27057;51.438;-0.010;2023-02-28T03:12:21;12.52;;;3.95;;
41309;SDS011;27057;51.438;-0.010;2023-02-28T03:15:21;21.65;;;4.13;;
41309;SDS011;27057;51.438;-0.010;2023-02-28T03:17:57;21.60;;;4.95;;
41309;SDS011;27057;51.438;-0.010;2023-02-28T03:23:24;13.95;;;3.63;;
41309;SDS011;27057;51.438;-0.010;2023-02-28T03:26:14;34.22;;;9.05;;
41309;SDS011;27057;51.438;-0.010;2023-02-28T03:29:01;13.50;;;5.38;;
41309;SDS011;27057;51.438;-0.010;2023-02-28T03:31:41;17.98;;;4.25;;
41309;SDS011;27057;51.438;-0.010;2023-02-28T03:34:34;27.42;;;5.22;;
41309;SDS011;27057;51.438;-0.010;2023-02-28T03:37:11;16.73;;;4.35;;
41309;SDS011;27057;51.438;-0.010;2023-02-28T03:39:49;16.25;;;4.80;;
41309;SDS011;27057;51.438;-0.010;2023-02-28T03:42:31;20.77;;;4.32;;
41309;SDS011;27057;51.438;-0.010;2023-02-28T03:45:02;13.32;;;4.45;;
41309;SDS011;27057;51.438;-0.010;2023-02-28T03:47:39;29.67;;;4.20;;
41309;SDS011;27057;51.438;-0.010;2023-02-28T03:52:58;11.35;;;4.18;;
41309;SDS011;27057;51.438;-0.010;2023-02-28T03:55:37;14.07;;;3.83;;
41309;SDS011;27057;51.438;-0.010;2023-02-28T03:58:21;14.52;;;4.00;;
41309;SDS011;27057;51.438;-0.010;2023-02-28T04:01:00;10.05;;;3.17;;
41309;SDS011;27057;51.438;-0.010;2023-02-28T04:03:35;19.52;;;3.83;;
41309;SDS011;27057;51.438;-0.010;2023-02-28T04:06:04;26.17;;;4.15;;
41309;SDS011;27057;51.438;-0.010;2023-02-28T04:08:34;25.27;;;4.43;;
41309;SDS011;27057;51.438;-0.010;2023-02-28T04:11:06;24.27;;;3.75;;
41309;SDS011;27057;51.438;-0.010;2023-02-28T04:13:41;27.85;;;3.90;;
41309;SDS011;27057;51.438;-0.010;2023-02-28T04:16:12;16.17;;;3.85;;
41309;SDS011;27057;51.438;-0.010;2023-02-28T04:18:58;15.77;;;3.80;;
41309;SDS011;27057;51.438;-0.010;2023-02-28T04:21:29;11.57;;;3.00;;
41309;SDS011;27057;51.438;-0.010;2023-02-28T04:24:00;8.82;;;3.42;;
41309;SDS011;27057;51.438;-0.010;2023-02-28T04:26:31;10.93;;;3.30;;
41309;SDS011;27057;51.438;-0.010;2023-02-28T04:29:01;14.15;;;3.50;;
41309;SDS011;27057;51.438;-0.010;2023-02-28T04:31:30;8.90;;;2.92;;
41309;SDS011;27057;51.438;-0.010;2023-02-28T04:33:58;18.77;;;3.83;;
41309;SDS011;27057;51.438;-0.010;2023-02-28T04:36:26;30.58;;;4.07;;
41309;SDS011;27057;51.438;-0.010;2023-02-28T04:38:54;29.60;;;4.45;;
41309;SDS011;27057;51.438;-0.010;2023-02-28T04:41:22;14.50;;;3.38;;
41309;SDS011;27057;51.438;-0.010;2023-02-28T04:43:52;15.68;;;4.03;;
41309;SDS011;27057;51.438;-0.010;2023-02-28T04:46:20;21.95;;;3.88;;
41309;SDS011;27057;51.438;-0.010;2023-02-28T04:48:47;34.67;;;4.55;;
41309;SDS011;27057;51.438;-0.010;2023-02-28T04:51:16;15.50;;;4.00;;
41309;SDS011;27057;51.438;-0.010;2023-02-28T04:53:45;12.70;;;4.45;;
41309;SDS011;27057;51.438;-0.010;2023-02-28T04:56:13;14.88;;;3.17;;
41309;SDS011;27057;51.438;-0.010;2023-02-28T04:58:42;24.88;;;3.80;;
41309;SDS011;27057;51.438;-0.010;2023-02-28T05:01:17;9.10;;;3.38;;
41309;SDS011;27057;51.438;-0.010;2023-02-28T05:03:50;16.02;;;4.93;;
41309;SDS011;27057;51.438;-0.010;2023-02-28T05:06:18;19.83;;;4.38;;
41309;SDS011;27057;51.438;-0.010;2023-02-28T05:08:47;20.90;;;4.28;;
41309;SDS011;27057;51.438;-0.010;2023-02-28T05:11:19;18.75;;;5.35;;
41309;SDS011;27057;51.438;-0.010;2023-02-28T05:13:49;13.50;;;4.18;;
41309;SDS011;27057;51.438;-0.010;2023-02-28T05:16:17;19.13;;;4.68;;
41309;SDS011;27057;51.438;-0.010;2023-02-28T05:18:45;26.42;;;4.85;;
41309;SDS011;27057;51.438;-0.010;2023-02-28T05:21:22;12.77;;;4.60;;
41309;SDS011;27057;51.438;-0.010;2023-02-28T05:23:58;18.42;;;4.72;;
41309;SDS011;27057;51.438;-0.010;2023-02-28T05:26:27;18.80;;;5.68;;
41309;SDS011;27057;51.438;-0.010;2023-02-28T05:28:55;21.50;;;5.30;;
41309;SDS011;27057;51.438;-0.010;2023-02-28T05:31:23;11.35;;;4.57;;
41309;SDS011;27057;51.438;-0.010;2023-02-28T05:33:51;15.18;;;6.07;;
41309;SDS011;27057;51.438;-0.010;2023-02-28T05:36:19;18.65;;;5.95;;
41309;SDS011;27057;51.438;-0.010;2023-02-28T05:38:47;15.30;;;6.55;;
41309;SDS011;27057;51.438;-0.010;2023-02-28T05:41:16;26.00;;;6.80;;
41309;SDS011;27057;51.438;-0.010;2023-02-28T05:43:46;38.38;;;8.55;;
41309;SDS011;27057;51.438;-0.010;2023-02-28T05:46:14;25.98;;;6.60;;
41309;SDS011;27057;51.438;-0.010;2023-02-28T05:48:42;18.95;;;6.63;;
41309;SDS011;27057;51.438;-0.010;2023-02-28T05:51:13;19.25;;;6.55;;
41309;SDS011;27057;51.438;-0.010;2023-02-28T05:53:41;19.50;;;7.38;;
41309;SDS011;27057;51.438;-0.010;2023-02-28T05:56:08;24.42;;;6.72;;
41309;SDS011;27057;51.438;-0.010;2023-02-28T05:58:35;23.30;;;7.65;;
41309;SDS011;27057;51.438;-0.010;2023-02-28T06:03:59;17.73;;;7.18;;
41309;SDS011;27057;51.438;-0.010;2023-02-28T06:06:27;26.42;;;7.25;;
41309;SDS011;27057;51.438;-0.010;2023-02-28T06:08:56;31.25;;;8.13;;
41309;SDS011;27057;51.438;-0.010;2023-02-28T06:11:24;18.80;;;7.95;;
41309;SDS011;27057;51.438;-0.010;2023-02-28T06:13:55;17.13;;;7.13;;
41309;SDS011;27057;51.438;-0.010;2023-02-28T06:16:26;22.65;;;8.13;;
41309;SDS011;27057;51.438;-0.010;2023-02-28T06:18:56;20.90;;;7.25;;
41309;SDS011;27057;51.438;-0.010;2023-02-28T06:21:25;16.20;;;7.13;;
41309;SDS011;27057;51.438;-0.010;2023-02-28T06:23:54;36.42;;;8.95;;
41309;SDS011;27057;51.438;-0.010;2023-02-28T06:26:23;17.75;;;7.53;;
41309;SDS011;27057;51.438;-0.010;2023-02-28T06:28:51;15.10;;;7.18;;
41309;SDS011;27057;51.438;-0.010;2023-02-28T06:31:19;22.80;;;7.25;;
41309;SDS011;27057;51.438;-0.010;2023-02-28T06:33:47;25.35;;;8.27;;
41309;SDS011;27057;51.438;-0.010;2023-02-28T06:36:15;18.30;;;7.55;;
41309;SDS011;27057;51.438;-0.010;2023-02-28T06:38:43;16.30;;;7.20;;
41309;SDS011;27057;51.438;-0.010;2023-02-28T06:41:11;17.63;;;7.50;;
41309;SDS011;27057;51.438;-0.010;2023-02-28T06:43:39;19.10;;;8.20;;
41309;SDS011;27057;51.438;-0.010;2023-02-28T06:46:09;25.50;;;7.03;;
41309;SDS011;27057;51.438;-0.010;2023-02-28T06:48:40;22.52;;;7.55;;
41309;SDS011;27057;51.438;-0.010;2023-02-28T06:51:17;22.10;;;7.47;;
41309;SDS011;27057;51.438;-0.010;2023-02-28T06:53:51;24.10;;;8.05;;
41309;SDS011;27057;51.438;-0.010;2023-02-28T06:56:18;27.58;;;8.50;;
41309;SDS011;27057;51.438;-0.010;2023-02-28T06:58:48;21.35;;;7.03;;
41309;SDS011;27057;51.438;-0.010;2023-02-28T07:01:16;27.30;;;8.10;;
41309;SDS011;27057;51.438;-0.010;2023-02-28T07:03:44;19.48;;;8.05;;
41309;SDS011;27057;51.438;-0.010;2023-02-28T07:06:12;17.85;;;7.03;;
41309;SDS011;27057;51.438;-0.010;2023-02-28T07:08:39;31.00;;;8.68;;
41309;SDS011;27057;51.438;-0.010;2023-02-28T07:11:07;21.50;;;7.13;;
41309;SDS011;27057;51.438;-0.010;2023-02-28T07:13:35;20.15;;;7.22;;
41309;SDS011;27057;51.438;-0.010;2023-02-28T07:16:04;31.80;;;8.48;;
41309;SDS011;27057;51.438;-0.010;2023-02-28T07:18:32;23.60;;;8.18;;
41309;SDS011;27057;51.438;-0.010;2023-02-28T07:21:04;21.67;;;8.43;;
41309;SDS011;27057;51.438;-0.010;2023-02-28T07:23:33;24.13;;;8.05;;
41309;SDS011;27057;51.438;-0.010;2023-02-28T07:26:00;23.58;;;8.15;;
41309;SDS011;27057;51.438;-0.010;2023-02-28T07:28:28;18.52;;;7.45;;
41309;SDS011;27057;51.438;-0.010;2023-02-28T07:30:55;19.40;;;6.70;;
41309;SDS011;27057;51.438;-0.010;2023-02-28T07:33:22;17.23;;;6.40;;
41309;SDS011;27057;51.438;-0.010;2023-02-28T07:35:50;15.40;;;6.50;;
41309;SDS011;27057;51.438;-0.010;2023-02-28T07:38:18;25.73;;;7.57;;
41309;SDS011;27057;51.438;-0.010;2023-02-28T07:40:46;16.55;;;7.18;;
41309;SDS011;27057;51.438;-0.010;2023-02-28T07:43:13;18.27;;;6.20;;
41309;SDS011;27057;51.438;-0.010;2023-02-28T07:45:41;18.50;;;7.15;;
41309;SDS011;27057;51.438;-0.010;2023-02-28T07:48:08;16.70;;;7.43;;
41309;SDS011;27057;51.438;-0.010;2023-02-28T07:50:36;14.68;;;6.53;;
41309;SDS011;27057;51.438;-0.010;2023-02-28T07:53:04;15.00;;;8.20;;
41309;SDS011;27057;51.438;-0.010;2023-02-28T07:55:32;14.07;;;7.15;;
41309;SDS011;27057;51.438;-0.010;2023-02-28T07:57:59;15.30;;;7.97;;
41309;SDS011;27057;51.438;-0.010;2023-02-28T08:00:27;17.38;;;7.30;;
41309;SDS011;27057;51.438;-0.010;2023-02-28T08:02:56;14.43;;;7.35;;
41309;SDS011;27057;51.438;-0.010;2023-02-28T08:05:23;14.77;;;6.55;;
41309;SDS011;27057;51.438;-0.010;2023-02-28T08:07:51;17.80;;;7.55;;
41309;SDS011;27057;51.438;-0.010;2023-02-28T08:10:19;14.98;;;6.10;;
41309;SDS011;27057;51.438;-0.010;2023-02-28T08:12:47;13.25;;;6.50;;
41309;SDS011;27057;51.438;-0.010;2023-02-28T08:15:15;17.05;;;6.60;;
41309;SDS011;27057;51.438;-0.010;2023-02-28T08:17:42;15.25;;;7.18;;
41309;SDS011;27057;51.438;-0.010;2023-02-28T08:20:10;12.95;;;6.05;;
41309;SDS011;27057;51.438;-0.010;2023-02-28T08:22:37;8.77;;;5.00;;
41309;SDS011;27057;51.438;-0.010;2023-02-28T08:25:05;12.30;;;5.30;;
41309;SDS011;27057;51.438;-0.010;2023-02-28T08:27:34;13.07;;;5.28;;
41309;SDS011;27057;51.438;-0.010;2023-02-28T08:30:02;12.13;;;5.50;;
41309;SDS011;27057;51.438;-0.010;2023-02-28T08:32:30;8.43;;;4.80;;
41309;SDS011;27057;51.438;-0.010;2023-02-28T08:34:59;13.07;;;5.47;;
41309;SDS011;27057;51.438;-0.010;2023-02-28T08:37:27;9.95;;;4.57;;
41309;SDS011;27057;51.438;-0.010;2023-02-28T08:39:54;8.20;;;4.63;;
41309;SDS011;27057;51.438;-0.010;2023-02-28T08:42:23;8.85;;;4.85;;
41309;SDS011;27057;51.438;-0.010;2023-02-28T08:44:50;11.10;;;4.88;;
41309;SDS011;27057;51.438;-0.010;2023-02-28T08:47:18;12.30;;;4.32;;
41309;SDS011;27057;51.438;-0.010;2023-02-28T08:49:45;11.27;;;5.00;;
41309;SDS011;27057;51.438;-0.010;2023-02-28T08:52:13;17.25;;;4.72;;
41309;SDS011;27057;51.438;-0.010;2023-02-28T08:54:40;7.22;;;4.25;;
41309;SDS011;27057;51.438;-0.010;2023-02-28T08:57:08;7.28;;;4.32;;
41309;SDS011;27057;51.438;-0.010;2023-02-28T08:59:35;7.45;;;3.47;;
41309;SDS011;27057;51.438;-0.010;2023-02-28T09:02:03;6.45;;;3.72;;
41309;SDS011;27057;51.438;-0.010;2023-02-28T09:04:30;8.43;;;3.83;;
41309;SDS011;27057;51.438;-0.010;2023-02-28T09:06:58;14.25;;;4.40;;
41309;SDS011;27057;51.438;-0.010;2023-02-28T09:09:25;7.53;;;3.60;;
41309;SDS011;27057;51.438;-0.010;2023-02-28T09:11:55;5.40;;;3.00;;
41309;SDS011;27057;51.438;-0.010;2023-02-28T09:14:23;12.50;;;4.03;;
41309;SDS011;27057;51.438;-0.010;2023-02-28T09:16:51;6.43;;;3.58;;
41309;SDS011;27057;51.438;-0.010;2023-02-28T09:19:18;8.48;;;3.78;;
41309;SDS011;27057;51.438;-0.010;2023-02-28T09:21:46;11.52;;;3.40;;
41309;SDS011;27057;51.438;-0.010;2023-02-28T09:24:13;12.43;;;4.50;;
41309;SDS011;27057;51.438;-0.010;2023-02-28T09:26:41;11.95;;;3.50;;
41309;SDS011;27057;51.438;-0.010;2023-02-28T09:29:29;6.43;;;3.83;;
41309;SDS011;27057;51.438;-0.010;2023-02-28T09:31:57;8.90;;;4.15;;
41309;SDS011;27057;51.438;-0.010;2023-02-28T09:34:28;11.07;;;4.72;;
41309;SDS011;27057;51.438;-0.010;2023-02-28T09:36:58;8.07;;;3.65;;
41309;SDS011;27057;51.438;-0.010;2023-02-28T09:39:26;9.05;;;4.25;;
41309;SDS011;27057;51.438;-0.010;2023-02-28T09:41:54;10.50;;;4.28;;
41309;SDS011;27057;51.438;-0.010;2023-02-28T09:44:33;7.68;;;3.58;;
41309;SDS011;27057;51.438;-0.010;2023-02-28T09:47:26;10.30;;;4.68;;
41309;SDS011;27057;51.438;-0.010;2023-02-28T09:49:58;11.40;;;4.50;;
41309;SDS011;27057;51.438;-0.010;2023-02-28T09:52:33;9.77;;;3.78;;
41309;SDS011;27057;51.438;-0.010;2023-02-28T09:55:15;10.32;;;3.95;;
41309;SDS011;27057;51.438;-0.010;2023-02-28T09:57:52;7.05;;;4.05;;
41309;SDS011;27057;51.438;-0.010;2023-02-28T10:00:33;5.70;;;3.70;;
41309;SDS011;27057;51.438;-0.010;2023-02-28T10:06:18;13.60;;;4.60;;
41309;SDS011;27057;51.438;-0.010;2023-02-28T10:08:52;6.22;;;3.53;;
41309;SDS011;27057;51.438;-0.010;2023-02-28T10:11:28;7.90;;;3.53;;
41309;SDS011;27057;51.438;-0.010;2023-02-28T10:14:00;8.18;;;3.38;;
41309;SDS011;27057;51.438;-0.010;2023-02-28T10:16:38;9.57;;;3.13;;
41309;SDS011;27057;51.438;-0.010;2023-02-28T10:22:33;7.00;;;3.38;;
41309;SDS011;27057;51.438;-0.010;2023-02-28T10:24:49;9.73;;;3.25;;
41309;SDS011;27057;51.438;-0.010;2023-02-28T10:27:19;13.15;;;5.05;;
41309;SDS011;27057;51.438;-0.010;2023-02-28T10:29:53;22.08;;;4.18;;
41309;SDS011;27057;51.438;-0.010;2023-02-28T10:32:26;5.55;;;3.45;;
41309;SDS011;27057;51.438;-0.010;2023-02-28T10:35:15;12.27;;;3.30;;
41309;SDS011;27057;51.438;-0.010;2023-02-28T10:37:46;13.43;;;4.00;;
41309;SDS011;27057;51.438;-0.010;2023-02-28T10:43:03;20.05;;;3.20;;
41309;SDS011;27057;51.438;-0.010;2023-02-28T10:45:33;12.10;;;3.15;;
41309;SDS011;27057;51.438;-0.010;2023-02-28T10:53:07;5.00;;;1.92;;
41309;SDS011;27057;51.438;-0.010;2023-02-28T10:55:43;5.47;;;1.98;;
41309;SDS011;27057;51.438;-0.010;2023-02-28T10:58:20;8.00;;;2.10;;
41309;SDS011;27057;51.438;-0.010;2023-02-28T11:00:49;7.30;;;2.58;;
41309;SDS011;27057;51.438;-0.010;2023-02-28T11:03:23;4.00;;;1.55;;
41309;SDS011;27057;51.438;-0.010;2023-02-28T11:05:51;3.88;;;1.75;;
41309;SDS011;27057;51.438;-0.010;2023-02-28T11:08:19;4.50;;;3.60;;
41309;SDS011;27057;51.438;-0.010;2023-02-28T11:10:47;9.85;;;2.00;;
41309;SDS011;27057;51.438;-0.010;2023-02-28T11:13:25;5.65;;;1.75;;
41309;SDS011;27057;51.438;-0.010;2023-02-28T11:15:57;7.47;;;1.70;;
41309;SDS011;27057;51.438;-0.010;2023-02-28T11:18:29;17.17;;;2.53;;
41309;SDS011;27057;51.438;-0.010;2023-02-28T11:20:58;8.45;;;2.28;;
41309;SDS011;27057;51.438;-0.010;2023-02-28T11:23:29;11.35;;;2.92;;
41309;SDS011;27057;51.438;-0.010;2023-02-28T11:26:02;5.45;;;2.70;;
41309;SDS011;27057;51.438;-0.010;2023-02-28T11:28:33;4.30;;;2.50;;
41309;SDS011;27057;51.438;-0.010;2023-02-28T11:33:49;7.90;;;2.97;;
41309;SDS011;27057;51.438;-0.010;2023-02-28T11:36:23;12.88;;;2.80;;
41309;SDS011;27057;51.438;-0.010;2023-02-28T11:38:53;10.77;;;2.88;;
41309;SDS011;27057;51.438;-0.010;2023-02-28T11:41:39;10.48;;;3.65;;
41309;SDS011;27057;51.438;-0.010;2023-02-28T11:44:39;12.95;;;3.17;;
41309;SDS011;27057;51.438;-0.010;2023-02-28T11:52:56;6.10;;;2.97;;
41309;SDS011;27057;51.438;-0.010;2023-02-28T11:55:38;11.60;;;3.83;;
41309;SDS011;27057;51.438;-0.010;2023-02-28T12:03:50;5.35;;;2.60;;
41309;SDS011;27057;51.438;-0.010;2023-02-28T12:06:25;6.38;;;2.95;;
41309;SDS011;27057;51.438;-0.010;2023-02-28T12:11:55;8.15;;;3.40;;
41309;SDS011;27057;51.438;-0.010;2023-02-28T12:14:46;9.93;;;3.17;;
41309;SDS011;27057;51.438;-0.010;2023-02-28T12:20:18;12.32;;;4.10;;
41309;SDS011;27057;51.438;-0.010;2023-02-28T12:28:49;7.20;;;3.65;;
41309;SDS011;27057;51.438;-0.010;2023-02-28T12:31:21;6.65;;;3.13;;
41309;SDS011;27057;51.438;-0.010;2023-02-28T12:33:52;5.80;;;3.33;;
41309;SDS011;27057;51.438;-0.010;2023-02-28T12:36:26;6.65;;;3.20;;
41309;SDS011;27057;51.438;-0.010;2023-02-28T12:39:00;5.93;;;3.40;;
41309;SDS011;27057;51.438;-0.010;2023-02-28T12:41:37;11.43;;;3.50;;
41309;SDS011;27057;51.438;-0.010;2023-02-28T12:44:15;3.85;;;2.50;;
41309;SDS011;27057;51.438;-0.010;2023-02-28T12:46:48;7.18;;;3.15;;
41309;SDS011;27057;51.438;-0.010;2023-02-28T12:49:23;3.70;;;2.78;;
41309;SDS011;27057;51.438;-0.010;2023-02-28T12:51:59;7.43;;;3.38;;
41309;SDS011;27057;51.438;-0.010;2023-02-28T12:57:14;7.82;;;2.88;;
41309;SDS011;27057;51.438;-0.010;2023-02-28T13:00:18;13.60;;;3.47;;
41309;SDS011;27057;51.438;-0.010;2023-02-28T13:11:23;11.85;;;3.42;;
41309;SDS011;27057;51.438;-0.010;2023-02-28T13:14:05;8.52;;;3.60;;
41309;SDS011;27057;51.438;-0.010;2023-02-28T13:16:51;12.10;;;3.58;;
41309;SDS011;27057;51.438;-0.010;2023-02-28T13:19:26;7.85;;;3.88;;
41309;SDS011;27057;51.438;-0.010;2023-02-28T13:21:56;5.55;;;3.55;;
41309;SDS011;27057;51.438;-0.010;2023-02-28T13:24:39;6.25;;;2.42;;
41309;SDS011;27057;51.438;-0.010;2023-02-28T13:27:12;6.82;;;2.75;;
41309;SDS011;27057;51.438;-0.010;2023-02-28T13:29:43;4.47;;;2.30;;
41309;SDS011;27057;51.438;-0.010;2023-02-28T13:37:41;5.97;;;3.33;;
41309;SDS011;27057;51.438;-0.010;2023-02-28T13:42:47;4.93;;;2.85;;
41309;SDS011;27057;51.438;-0.010;2023-02-28T13:45:21;4.32;;;2.63;;
41309;SDS011;27057;51.438;-0.010;2023-02-28T13:47:54;6.35;;;3.65;;
41309;SDS011;27057;51.438;-0.010;2023-02-28T13:50:29;4.35;;;2.47;;
41309;SDS011;27057;51.438;-0.010;2023-02-28T13:55:46;4.22;;;2.22;;
41309;SDS011;27057;51.438;-0.010;2023-02-28T13:58:41;8.63;;;2.90;;
41309;SDS011;27057;51.438;-0.010;2023-02-28T14:04:10;6.63;;;3.00;;
41309;SDS011;27057;51.438;-0.010;2023-02-28T14:06:54;3.40;;;2.08;;
41309;SDS011;27057;51.438;-0.010;2023-02-28T14:09:34;6.57;;;2.40;;
41309;SDS011;27057;51.438;-0.010;2023-02-28T14:18:14;7.88;;;2.40;;
41309;SDS011;27057;51.438;-0.010;2023-02-28T14:29:11;2.67;;;1.80;;
41309;SDS011;27057;51.438;-0.010;2023-02-28T14:31:47;2.60;;;1.70;;
41309;SDS011;27057;51.438;-0.010;2023-02-28T14:34:35;5.65;;;1.83;;
41309;SDS011;27057;51.438;-0.010;2023-02-28T14:37:09;7.80;;;2.25;;
41309;SDS011;27057;51.438;-0.010;2023-02-28T14:39:43;14.32;;;1.73;;
41309;SDS011;27057;51.438;-0.010;2023-02-28T14:42:27;4.78;;;2.15;;
41309;SDS011;27057;51.438;-0.010;2023-02-28T14:44:57;2.25;;;1.67;;
41309;SDS011;27057;51.438;-0.010;2023-02-28T14:47:27;3.13;;;1.75;;
41309;SDS011;27057;51.438;-0.010;2023-02-28T14:49:58;3.67;;;1.80;;
41309;SDS011;27057;51.438;-0.010;2023-02-28T14:52:28;4.47;;;2.15;;
41309;SDS011;27057;51.438;-0.010;2023-02-28T14:55:10;4.70;;;2.40;;
41309;SDS011;27057;51.438;-0.010;2023-02-28T14:57:50;10.15;;;1.88;;
41309;SDS011;27057;51.438;-0.010;2023-02-28T15:00:27;4.18;;;1.70;;
41309;SDS011;27057;51.438;-0.010;2023-02-28T15:02:57;5.10;;;1.75;;
41309;SDS011;27057;51.438;-0.010;2023-02-28T15:05:27;3.70;;;1.25;;
41309;SDS011;27057;51.438;-0.010;2023-02-28T15:08:00;5.90;;;1.58;;
41309;SDS011;27057;51.438;-0.010;2023-02-28T15:10:30;1.92;;;1.33;;
41309;SDS011;27057;51.438;-0.010;2023-02-28T15:13:00;4.80;;;0.88;;
41309;SDS011;27057;51.438;-0.010;2023-02-28T15:20:55;2.92;;;1.33;;
41309;SDS011;27057;51.438;-0.010;2023-02-28T15:23:27;2.80;;;1.25;;
41309;SDS011;27057;51.438;-0.010;2023-02-28T15:25:56;4.72;;;1.27;;
41309;SDS011;27057;51.438;-0.010;2023-02-28T15:28:24;1.88;;;1.13;;
41309;SDS011;27057;51.438;-0.010;2023-02-28T15:31:02;4.47;;;1.02;;
41309;SDS011;27057;51.438;-0.010;2023-02-28T15:33:54;5.90;;;1.30;;
41309;SDS011;27057;51.438;-0.010;2023-02-28T15:36:29;8.23;;;1.70;;
41309;SDS011;27057;51.438;-0.010;2023-02-28T15:39:00;1.10;;;1.00;;
41309;SDS011;27057;51.438;-0.010;2023-02-28T15:41:41;5.72;;;1.38;;
41309;SDS011;27057;51.438;-0.010;2023-02-28T15:57:51;1.55;;;1.25;;
41309;SDS011;27057;51.438;-0.010;2023-02-28T16:00:22;3.53;;;2.15;;
41309;SDS011;27057;51.438;-0.010;2023-02-28T16:02:51;4.18;;;1.60;;
41309;SDS011;27057;51.438;-0.010;2023-02-28T16:08:00;6.05;;;1.60;;
41309;SDS011;27057;51.438;-0.010;2023-02-28T16:10:37;2.88;;;1.58;;
41309;SDS011;27057;51.438;-0.010;2023-02-28T16:13:05;2.83;;;1.27;;
41309;SDS011;27057;51.438;-0.010;2023-02-28T16:15:35;5.82;;;1.25;;
41309;SDS011;27057;51.438;-0.010;2023-02-28T16:18:12;7.10;;;1.45;;
41309;SDS011;27057;51.438;-0.010;2023-02-28T16:20:40;9.35;;;2.10;;
41309;SDS011;27057;51.438;-0.010;2023-02-28T16:23:08;3.72;;;1.65;;
41309;SDS011;27057;51.438;-0.010;2023-02-28T16:25:42;5.90;;;1.38;;
41309;SDS011;27057;51.438;-0.010;2023-02-28T16:28:17;2.22;;;1.65;;
41309;SDS011;27057;51.438;-0.010;2023-02-28T16:30:47;4.70;;;1.30;;
41309;SDS011;27057;51.438;-0.010;2023-02-28T16:33:15;7.95;;;1.23;;
41309;SDS011;27057;51.438;-0.010;2023-02-28T16:35:42;2.53;;;1.60;;
41309;SDS011;27057;51.438;-0.010;2023-02-28T16:38:09;2.20;;;1.45;;
41309;SDS011;27057;51.438;-0.010;2023-02-28T16:40:37;4.65;;;1.70;;
41309;SDS011;27057;51.438;-0.010;2023-02-28T16:43:05;2.22;;;1.50;;
41309;SDS011;27057;51.438;-0.010;2023-02-28T16:45:36;7.47;;;1.52;;
41309;SDS011;27057;51.438;-0.010;2023-02-28T16:48:04;7.35;;;1.60;;
41309;SDS011;27057;51.438;-0.010;2023-02-28T16:50:31;8.80;;;1.80;;
41309;SDS011;27057;51.438;-0.010;2023-02-28T16:52:59;3.25;;;1.60;;
41309;SDS011;27057;51.438;-0.010;2023-02-28T16:55:27;2.90;;;1.33;;
41309;SDS011;27057;51.438;-0.010;2023-02-28T16:58:00;2.17;;;1.45;;